Terminal Aerodrome Forecast
Issued by NWS Jackson, MS

Home | Current Version | Previous Version | Text Only | Print | Product List | Glossary On
Versions: 1 2 3 4 5 6 7 8 9 10 11 12 13
000
FTUS44 KJAN 221700 RRA
TAFMEI
TAF
KMEI 221750Z 2218/2318 14011G17KT P6SM SCT150
     FM230200 14010KT P6SM BKN008 OVC025
     FM230700 15009KT P6SM OVC015
     FM231200 14015G21KT 6SM -RA BR OVC015
     FM231400 14014G21KT 4SM TSRA BR OVC007CB
     FM231700 18014G21KT P6SM -RA BKN050=

USA.gov is the U.S. government's official web portal to all federal, state and local government web resources and services.